Time;durP1;ratioP1;P1;durP2;ratioP2;P2;SDS_P1;SDS_P2;PMS_P1;PMS_P2;Temp;Humidity;BMP_temperature;BMP_pressure;BME280_temperature;BME280_humidity;BME280_pressure;Samples;Min_cycle;Max_cycle;Signal;HPM_P1;HPM_P2
2022/11/05 00:10:23;;;;;;;0.60;0.60;;;;;;;8.05;48.61;91761.94;4880620;29;20088;-79
2022/11/05 00:18:17;;;;;;;1.23;0.90;;;;;;;8.02;49.34;91762.53;4880531;29;20037;-79
2022/11/05 00:20:43;;;;;;;0.60;0.60;;;;;;;7.97;50.51;91759.97;4876747;29;20120;-79
2022/11/05 00:26:05;;;;;;;0.45;0.45;;;;;;;8.01;49.63;91766.94;4882271;29;20041;-79
2022/11/05 00:28:31;;;;;;;0.60;0.60;;;;;;;7.92;50.45;91763.44;4881387;29;20514;-79
2022/11/05 00:31:08;;;;;;;0.55;0.55;;;;;;;7.80;51.54;91768.34;4879652;29;20037;-79
2022/11/05 00:33:34;;;;;;;0.60;0.60;;;;;;;7.64;53.21;91758.19;4862205;29;20368;-79
2022/11/05 00:36:01;;;;;;;0.70;0.70;;;;;;;7.52;52.83;91765.69;4881764;29;20045;-79
2022/11/05 00:38:29;;;;;;;0.70;0.63;;;;;;;7.44;54.27;91774.13;4883809;29;20044;-78
2022/11/05 00:40:54;;;;;;;0.88;0.60;;;;;;;7.32;56.18;91773.75;4883515;29;20053;-79
2022/11/05 00:46:04;;;;;;;0.60;0.60;;;;;;;7.27;52.13;91780.63;4879863;29;20052;-79
2022/11/05 00:51:14;;;;;;;0.50;0.50;;;;;;;7.43;51.01;91781.16;4886229;29;20176;-79
2022/11/05 00:53:40;;;;;;;0.50;0.50;;;;;;;7.45;50.95;91781.66;4871350;29;20045;-79
2022/11/05 00:56:05;;;;;;;0.50;0.50;;;;;;;7.45;51.12;91775.66;4875216;29;20033;-79
2022/11/05 00:58:31;;;;;;;0.73;0.73;;;;;;;7.49;51.13;91784.44;4884054;29;20516;-79
2022/11/05 01:00:58;;;;;;;0.60;0.60;;;;;;;7.53;51.27;91788.03;4881194;29;20045;-78
2022/11/05 01:03:29;;;;;;;0.60;0.60;;;;;;;7.51;51.55;91795.38;4870541;29;20061;-77
2022/11/05 01:05:58;;;;;;;0.50;0.50;;;;;;;7.48;51.37;91795.94;4863586;29;20054;-77
2022/11/05 01:08:26;;;;;;;0.55;0.50;;;;;;;7.47;51.60;91789.16;4878520;29;20037;-77
2022/11/05 01:10:54;;;;;;;0.50;0.50;;;;;;;7.45;51.58;91796.50;4879148;29;20029;-78
2022/11/05 01:13:23;;;;;;;0.65;0.55;;;;;;;7.47;52.37;91799.59;4875813;29;20124;-77
2022/11/05 01:15:49;;;;;;;0.68;0.60;;;;;;;7.45;52.04;91794.69;4859728;29;20045;-78
2022/11/05 01:18:16;;;;;;;0.70;0.70;;;;;;;7.60;50.29;91790.28;4879085;29;20127;-78
2022/11/05 01:20:42;;;;;;;0.60;0.60;;;;;;;7.54;51.14;91786.97;4880643;29;20120;-78
2022/11/05 01:23:08;;;;;;;0.80;0.80;;;;;;;7.52;50.76;91796.94;4880195;29;20079;-78
2022/11/05 01:25:34;;;;;;;0.82;0.80;;;;;;;7.52;51.52;91802.13;4862228;29;20065;-78
2022/11/05 01:28:01;;;;;;;0.63;0.63;;;;;;;7.53;51.13;91801.06;4872823;29;20033;-78
2022/11/05 01:30:26;;;;;;;0.50;0.50;;;;;;;7.66;49.51;91802.94;4877044;29;20067;-78
2022/11/05 01:32:52;;;;;;;0.43;0.43;;;;;;;7.72;49.76;91801.81;4879770;29;20053;-77
2022/11/05 01:35:18;;;;;;;0.60;0.60;;;;;;;7.78;50.34;91799.91;4868850;29;20148;-77
2022/11/05 01:37:44;;;;;;;0.73;0.70;;;;;;;7.82;50.10;91800.09;4866190;29;20619;-77
2022/11/05 01:40:16;;;;;;;0.60;0.60;;;;;;;7.77;50.05;91810.59;4867738;29;20116;-77
2022/11/05 01:42:42;;;;;;;0.77;0.70;;;;;;;7.83;49.85;91799.03;4861250;29;20145;-77
2022/11/05 01:45:20;;;;;;;0.40;0.40;;;;;;;7.88;49.44;91809.38;4874007;29;20354;-78
2022/11/05 01:47:58;;;;;;;0.70;0.70;;;;;;;7.85;51.15;91810.72;4873992;29;20038;-77
2022/11/05 01:50:49;;;;;;;0.75;0.70;;;;;;;7.79;49.96;91813.69;4878565;29;20047;-78
2022/11/05 01:53:47;;;;;;;0.88;0.70;;;;;;;7.77;49.91;91808.78;4862939;29;20055;-78
2022/11/05 01:56:30;;;;;;;0.40;0.40;;;;;;;7.74;50.37;91813.78;4867865;29;20497;-77
2022/11/05 01:59:02;;;;;;;0.60;0.60;;;;;;;7.87;49.46;91803.41;4866838;29;20495;-78
2022/11/05 02:01:28;;;;;;;0.70;0.70;;;;;;;7.79;49.75;91795.44;4862814;29;20052;-78
2022/11/05 02:03:59;;;;;;;0.88;0.60;;;;;;;7.75;50.06;91808.28;4878587;29;20041;-78
2022/11/05 02:06:27;;;;;;;0.60;0.60;;;;;;;7.73;49.73;91797.38;4869701;29;20045;-78
2022/11/05 02:09:02;;;;;;;0.77;0.77;;;;;;;7.74;49.69;91792.94;4869597;29;20059;-78
2022/11/05 02:11:28;;;;;;;1.27;0.63;;;;;;;7.86;49.01;91801.09;4865602;29;20049;-78
2022/11/05 02:13:54;;;;;;;0.50;0.50;;;;;;;7.79;49.48;91801.47;4860694;29;20038;-77
2022/11/05 02:16:35;;;;;;;0.52;0.52;;;;;;;7.85;48.32;91805.50;4859511;29;20040;-78
2022/11/05 02:19:25;;;;;;;0.75;0.60;;;;;;;7.88;48.53;91796.34;4842789;29;20462;-77
2022/11/05 02:22:36;;;;;;;0.70;0.70;;;;;;;7.82;49.38;91792.28;4878134;29;20073;-78
2022/11/05 02:25:26;;;;;;;1.17;0.70;;;;;;;7.76;49.74;91796.03;4863614;29;20139;-78
2022/11/05 02:28:33;;;;;;;0.45;0.45;;;;;;;7.76;49.87;91785.63;4864423;29;20098;-78
2022/11/05 02:31:31;;;;;;;0.73;0.73;;;;;;;7.72;49.95;91783.59;4870286;29;20036;-78
2022/11/05 02:34:11;;;;;;;0.70;0.65;;;;;;;7.65;49.03;91785.75;4878936;29;20128;-78
2022/11/05 02:36:44;;;;;;;0.40;0.40;;;;;;;7.65;49.32;91779.78;4877285;29;20024;-78
2022/11/05 02:39:13;;;;;;;0.50;0.50;;;;;;;7.61;49.81;91782.19;4871481;29;20049;-77
2022/11/05 02:42:04;;;;;;;0.40;0.40;;;;;;;7.52;50.55;91778.69;4860910;29;20075;-78
2022/11/05 02:45:18;;;;;;;0.50;0.50;;;;;;;7.58;49.58;91784.59;4860256;29;20162;-78
2022/11/05 02:47:49;;;;;;;0.60;0.60;;;;;;;7.53;48.47;91784.66;4805854;29;20054;-78
2022/11/05 02:50:38;;;;;;;0.40;0.40;;;;;;;7.66;48.61;91791.75;4840148;29;20085;-78
2022/11/05 02:53:09;;;;;;;0.55;0.55;;;;;;;7.62;48.68;91801.19;4841747;29;20038;-77
2022/11/05 02:55:52;;;;;;;0.60;0.60;;;;;;;7.62;49.32;91801.19;4855932;29;20108;-78
2022/11/05 02:58:18;;;;;;;0.63;0.60;;;;;;;7.76;48.22;91803.84;4862495;29;20411;-78
2022/11/05 03:00:51;;;;;;;0.60;0.60;;;;;;;7.68;49.95;91806.06;4857463;29;20037;-78
2022/11/05 03:03:16;;;;;;;0.73;0.65;;;;;;;7.65;49.54;91811.81;4874820;29;20041;-77
2022/11/05 03:05:49;;;;;;;0.40;0.40;;;;;;;7.58;49.11;91811.41;4878464;29;20101;-77
2022/11/05 03:08:51;;;;;;;0.60;0.60;;;;;;;7.59;49.47;91814.78;4872748;29;20034;-78
2022/11/05 03:11:20;;;;;;;0.40;0.40;;;;;;;7.55;49.55;91817.19;4858439;29;20520;-78
2022/11/05 03:14:01;;;;;;;0.40;0.40;;;;;;;7.53;49.02;91824.50;4885421;29;20033;-78
2022/11/05 03:16:35;;;;;;;0.57;0.57;;;;;;;7.57;48.96;91819.50;4878141;29;20041;-78
2022/11/05 03:19:12;;;;;;;0.50;0.50;;;;;;;7.56;48.92;91823.94;4870454;29;20141;-77
2022/11/05 03:21:37;;;;;;;0.50;0.50;;;;;;;7.65;48.75;91840.47;4859318;29;20073;-77
2022/11/05 03:24:21;;;;;;;0.50;0.50;;;;;;;7.63;48.83;91832.19;4859026;29;20446;-78
2022/11/05 03:27:01;;;;;;;0.63;0.63;;;;;;;7.65;49.30;91845.69;4877988;29;20045;-77
2022/11/05 03:29:35;;;;;;;0.50;0.50;;;;;;;7.68;47.69;91834.69;4872630;29;20037;-77
2022/11/05 03:32:03;;;;;;;0.50;0.50;;;;;;;7.65;47.90;91834.47;4857893;29;20505;-78
2022/11/05 03:34:41;;;;;;;0.40;0.40;;;;;;;7.76;47.76;91854.13;4857415;29;20038;-77
2022/11/05 03:37:08;;;;;;;0.70;0.70;;;;;;;7.69;48.35;91854.47;4876628;29;20568;-78
2022/11/05 03:39:45;;;;;;;0.38;0.38;;;;;;;7.72;48.08;91858.34;4874337;29;20057;-78
2022/11/05 03:42:15;;;;;;;0.50;0.50;;;;;;;7.72;47.90;91850.53;4859102;29;20493;-78
2022/11/05 03:44:48;;;;;;;1.95;0.73;;;;;;;7.77;47.97;91860.91;4858332;29;20489;-78
2022/11/05 03:47:19;;;;;;;1.23;0.50;;;;;;;7.81;47.57;91861.84;4875949;29;20476;-77
2022/11/05 03:49:56;;;;;;;0.63;0.63;;;;;;;7.80;47.24;91867.38;4876306;29;20085;-78
2022/11/05 03:52:27;;;;;;;0.60;0.60;;;;;;;7.80;47.39;91877.78;4869586;29;20076;-78
2022/11/05 03:54:52;;;;;;;0.40;0.40;;;;;;;7.88;46.76;91874.53;4852107;29;20085;-78
2022/11/05 03:57:24;;;;;;;3.65;0.57;;;;;;;7.81;47.08;91887.91;4868525;29;20051;-78
2022/11/05 03:59:50;;;;;;;0.63;0.60;;;;;;;7.83;46.99;91874.59;4876484;29;20072;-77
2022/11/05 04:02:18;;;;;;;0.63;0.63;;;;;;;7.90;46.62;91885.44;4860128;29;20058;-78
2022/11/05 04:04:44;;;;;;;0.63;0.60;;;;;;;7.80;47.12;91883.00;4858647;29;20077;-78
2022/11/05 04:15:24;;;;;;;1.50;0.60;;;;;;;7.76;46.91;91906.22;4857935;29;20463;-77
2022/11/05 04:17:50;;;;;;;0.40;0.40;;;;;;;7.64;47.13;91893.63;4863647;29;20033;-77
2022/11/05 04:25:47;;;;;;;0.30;0.30;;;;;;;7.57;48.13;91914.06;4857161;29;20041;-77
2022/11/05 04:28:13;;;;;;;0.60;0.60;;;;;;;7.53;48.01;91917.50;4871338;29;20403;-77
2022/11/05 04:30:39;;;;;;;0.82;0.65;;;;;;;7.45;48.18;91911.06;4877122;29;20256;-77
2022/11/05 04:33:08;;;;;;;1.08;0.70;;;;;;;7.42;48.60;91911.63;4874867;29;20464;-78
2022/11/05 04:35:47;;;;;;;0.70;0.70;;;;;;;7.38;48.10;91921.84;4872314;29;20045;-77
2022/11/05 04:38:17;;;;;;;0.60;0.60;;;;;;;7.33;48.88;91913.31;4871821;29;20029;-77
2022/11/05 04:40:43;;;;;;;0.60;0.60;;;;;;;7.34;48.39;91926.06;4840156;29;20397;-77
2022/11/05 04:43:17;;;;;;;0.73;0.57;;;;;;;7.37;48.92;91924.72;4840237;29;20174;-77
2022/11/05 04:45:43;;;;;;;0.65;0.65;;;;;;;7.32;48.68;91927.38;4868780;29;20045;-77
2022/11/05 04:48:09;;;;;;;0.60;0.55;;;;;;;7.27;48.70;91931.63;4875903;29;20052;-77
2022/11/05 04:50:35;;;;;;;0.50;0.50;;;;;;;7.24;49.15;91937.38;4872618;29;20393;-76
2022/11/05 04:53:00;;;;;;;0.70;0.70;;;;;;;7.18;48.91;91943.69;4877204;29;20048;-77
2022/11/05 04:55:27;;;;;;;1.27;0.60;;;;;;;7.16;49.40;91943.19;4868433;29;20046;-77
2022/11/05 04:57:53;;;;;;;0.50;0.50;;;;;;;7.14;48.82;91947.91;4858348;29;20026;-77
2022/11/05 05:00:21;;;;;;;0.52;0.47;;;;;;;7.13;48.39;91946.34;4862806;29;20093;-77
2022/11/05 05:02:47;;;;;;;0.60;0.60;;;;;;;7.20;48.58;91951.22;4876899;29;20029;-77
2022/11/05 05:05:13;;;;;;;1.40;0.60;;;;;;;7.10;50.41;91957.31;4875842;29;20507;-77
2022/11/05 05:07:40;;;;;;;0.60;0.50;;;;;;;7.11;49.10;91964.06;4838667;29;20381;-78
2022/11/05 05:10:07;;;;;;;0.57;0.57;;;;;;;7.11;48.86;91963.28;4840411;29;20489;-78
2022/11/05 05:12:34;;;;;;;0.82;0.63;;;;;;;7.14;47.82;91966.13;4840065;29;20050;-78
2022/11/05 05:14:59;;;;;;;0.52;0.52;;;;;;;7.41;46.05;91970.00;4840064;29;20029;-78
2022/11/05 05:17:25;;;;;;;1.42;0.52;;;;;;;7.64;46.52;91973.63;4852867;29;20049;-77
2022/11/05 05:22:34;;;;;;;0.40;0.40;;;;;;;7.58;46.83;91980.72;4872328;29;20048;-78
2022/11/05 05:25:00;;;;;;;0.60;0.60;;;;;;;7.43;47.67;91976.47;4879144;29;20036;-77
2022/11/05 05:27:30;;;;;;;0.50;0.50;;;;;;;7.33;47.78;91986.22;4851459;29;20117;-78
2022/11/05 05:29:57;;;;;;;0.40;0.40;;;;;;;7.21;48.11;91987.38;4861448;29;20408;-77
2022/11/05 05:32:23;;;;;;;0.40;0.40;;;;;;;7.20;48.15;91996.22;4864339;29;20536;-77
2022/11/05 05:34:49;;;;;;;0.77;0.68;;;;;;;7.34;47.29;91990.38;4878675;29;20127;-77
2022/11/05 05:37:15;;;;;;;0.50;0.50;;;;;;;7.34;47.14;91996.38;4874064;29;20432;-77
2022/11/05 05:39:41;;;;;;;0.50;0.50;;;;;;;7.46;47.62;91993.38;4861360;29;20044;-78
2022/11/05 05:42:06;;;;;;;0.50;0.50;;;;;;;7.55;46.50;92002.13;4859513;29;20042;-77
2022/11/05 05:44:32;;;;;;;0.57;0.57;;;;;;;7.44;47.06;92004.06;4876629;29;20052;-78
2022/11/05 05:46:57;;;;;;;1.33;0.60;;;;;;;7.48;45.58;91999.84;4878628;29;20506;-78
2022/11/05 05:49:23;;;;;;;0.65;0.65;;;;;;;7.49;46.55;92000.63;4859789;29;20041;-78
2022/11/05 05:51:48;;;;;;;0.50;0.50;;;;;;;7.56;46.37;92010.69;4859899;29;21146;-77
2022/11/05 05:54:14;;;;;;;0.40;0.40;;;;;;;7.54;47.66;92003.16;4866103;29;20210;-78
2022/11/05 05:56:42;;;;;;;0.47;0.47;;;;;;;7.53;46.93;92013.88;4878464;29;20120;-78
2022/11/05 05:59:08;;;;;;;0.52;0.52;;;;;;;7.45;46.73;92016.03;4846649;29;20046;-78
2022/11/05 06:01:34;;;;;;;0.50;0.50;;;;;;;7.40;47.07;92023.13;4841669;29;20074;-77
2022/11/05 06:03:59;;;;;;;0.55;0.50;;;;;;;7.43;46.38;92017.34;4858754;29;20606;-78
2022/11/05 06:06:25;;;;;;;2.65;0.52;;;;;;;7.38;47.06;92025.22;4890566;29;20084;-78
2022/11/05 06:08:50;;;;;;;0.43;0.43;;;;;;;7.36;47.42;92024.72;4883000;29;20034;-77
2022/11/05 06:11:16;;;;;;;0.40;0.40;;;;;;;7.37;46.47;92036.69;4842466;29;20557;-77
2022/11/05 06:13:42;;;;;;;0.30;0.30;;;;;;;7.35;46.85;92042.19;4842367;29;20049;-78
2022/11/05 06:16:08;;;;;;;0.47;0.47;;;;;;;7.44;46.09;92044.94;4872715;29;20044;-78
2022/11/05 06:18:35;;;;;;;0.43;0.43;;;;;;;7.42;46.47;92031.44;4844831;29;20113;-77
2022/11/05 06:21:06;;;;;;;0.40;0.40;;;;;;;7.47;46.06;92034.75;4858865;29;20101;-77
2022/11/05 06:23:33;;;;;;;0.50;0.50;;;;;;;7.48;46.78;92038.13;4877839;29;20041;-78
2022/11/05 06:26:07;;;;;;;0.60;0.60;;;;;;;7.84;45.47;92037.72;4869311;29;20029;-78
2022/11/05 06:28:33;;;;;;;0.43;0.43;;;;;;;8.95;43.72;92039.81;4879552;29;20040;-78
2022/11/05 06:30:59;;;;;;;0.50;0.50;;;;;;;9.93;41.56;92040.66;4862496;29;20044;-78
2022/11/05 06:33:25;;;;;;;0.50;0.50;;;;;;;10.93;40.68;92045.81;4858952;29;20075;-78
2022/11/05 06:35:51;;;;;;;0.50;0.50;;;;;;;11.77;39.34;92043.47;4859956;29;20069;-78
2022/11/05 06:38:17;;;;;;;0.50;0.50;;;;;;;12.61;37.28;92045.03;4873468;29;20064;-77
2022/11/05 06:40:42;;;;;;;0.50;0.50;;;;;;;13.70;34.25;92045.81;4866250;29;20080;-78
2022/11/05 06:43:08;;;;;;;0.63;0.50;;;;;;;14.25;32.54;92050.19;4844406;29;20101;-77
2022/11/05 06:45:34;;;;;;;0.50;0.50;;;;;;;15.11;31.99;92058.59;4861053;29;20061;-78
2022/11/05 06:47:59;;;;;;;0.50;0.50;;;;;;;15.64;32.58;92061.47;4860201;29;20045;-78
2022/11/05 06:50:26;;;;;;;1.08;0.60;;;;;;;16.30;31.89;92054.47;4861013;29;20037;-78
2022/11/05 06:53:00;;;;;;;0.50;0.50;;;;;;;16.64;31.97;92061.19;4861984;29;20045;-78
2022/11/05 06:55:27;;;;;;;0.50;0.50;;;;;;;17.32;30.81;92065.72;4861678;29;20045;-78
2022/11/05 06:57:53;;;;;;;0.60;0.60;;;;;;;17.78;30.03;92066.13;4877548;29;20030;-78
2022/11/05 07:00:19;;;;;;;1.05;0.68;;;;;;;18.18;30.39;92067.13;4855402;29;20046;-78
2022/11/05 07:02:45;;;;;;;0.43;0.43;;;;;;;18.44;29.87;92077.94;4867024;29;20136;-79
2022/11/05 07:05:12;;;;;;;0.38;0.38;;;;;;;18.93;28.42;92079.38;4863734;29;20037;-79
2022/11/05 07:07:40;;;;;;;0.85;0.60;;;;;;;19.48;27.53;92085.41;4861281;29;20045;-79
2022/11/05 07:10:08;;;;;;;0.85;0.50;;;;;;;20.11;27.70;92091.47;4861386;29;21336;-79
2022/11/05 07:12:33;;;;;;;3.67;0.50;;;;;;;20.51;27.16;92090.97;4847974;29;20034;-79
2022/11/05 07:14:59;;;;;;;0.30;0.30;;;;;;;20.43;26.73;92102.63;4858694;29;20464;-78
2022/11/05 07:17:25;;;;;;;0.60;0.40;;;;;;;20.90;25.93;92098.00;4860822;29;20041;-79
2022/11/05 07:19:50;;;;;;;0.50;0.50;;;;;;;21.11;25.54;92089.53;4849794;29;20041;-78
2022/11/05 07:22:16;;;;;;;0.40;0.40;;;;;;;21.61;24.37;92098.13;4852030;29;20030;-80
2022/11/05 07:24:42;;;;;;;0.60;0.52;;;;;;;21.82;24.53;92098.38;4869981;29;20042;-79
2022/11/05 07:27:08;;;;;;;0.98;0.60;;;;;;;22.53;23.46;92089.47;4861500;29;20135;-79
2022/11/05 07:29:33;;;;;;;0.50;0.50;;;;;;;22.65;22.52;92099.88;4868099;29;20076;-80
2022/11/05 07:31:59;;;;;;;0.40;0.40;;;;;;;23.37;21.25;92097.66;4866143;29;20053;-79
2022/11/05 07:34:24;;;;;;;0.50;0.50;;;;;;;23.22;20.48;92098.72;4861543;29;20071;-79
2022/11/05 07:36:50;;;;;;;0.50;0.50;;;;;;;23.46;22.33;92103.41;4863591;29;20029;-80
2022/11/05 07:39:16;;;;;;;0.50;0.50;;;;;;;23.39;22.00;92094.56;4838137;29;20055;-80
2022/11/05 07:41:41;;;;;;;0.50;0.50;;;;;;;22.40;21.39;92110.34;4858004;29;20465;-81
2022/11/05 07:44:07;;;;;;;0.65;0.60;;;;;;;23.15;20.68;92104.03;4859140;29;20057;-80
2022/11/05 07:46:32;;;;;;;1.67;0.50;;;;;;;23.61;20.40;92093.50;4871082;29;20073;-79
2022/11/05 07:48:58;;;;;;;0.50;0.50;;;;;;;23.55;20.80;92097.69;4881666;29;20105;-81
2022/11/05 07:51:23;;;;;;;0.70;0.70;;;;;;;23.56;21.07;92106.50;4851516;29;20042;-79
2022/11/05 07:53:49;;;;;;;0.60;0.60;;;;;;;23.53;20.23;92108.00;4857787;29;20042;-81
2022/11/05 07:56:15;;;;;;;0.50;0.50;;;;;;;23.49;20.30;92115.25;4856730;29;20048;-80
2022/11/05 07:58:40;;;;;;;0.60;0.60;;;;;;;22.06;23.19;92112.28;4858189;29;20460;-79
2022/11/05 08:01:06;;;;;;;0.43;0.38;;;;;;;21.91;21.82;92115.94;4862861;29;20049;-79
2022/11/05 08:03:32;;;;;;;0.38;0.38;;;;;;;20.06;23.21;92115.66;4857402;29;20037;-78
2022/11/05 08:05:58;;;;;;;0.28;0.28;;;;;;;20.47;25.25;92113.31;4855830;29;20051;-78
2022/11/05 08:08:24;;;;;;;0.57;0.40;;;;;;;20.86;24.42;92113.16;4850168;29;20042;-78
2022/11/05 08:10:50;;;;;;;0.50;0.50;;;;;;;20.46;24.91;92112.53;4860076;29;20112;-78
2022/11/05 08:13:16;;;;;;;0.20;0.20;;;;;;;20.17;24.04;92114.75;4859055;29;20041;-78
2022/11/05 08:15:43;;;;;;;0.20;0.20;;;;;;;20.00;26.56;92127.72;4861740;29;20041;-79
2022/11/05 08:18:15;;;;;;;0.40;0.40;;;;;;;19.81;24.84;92128.50;4857957;29;20025;-77
2022/11/05 08:20:42;;;;;;;0.55;0.32;;;;;;;18.47;27.18;92124.94;4860379;29;20037;-78
2022/11/05 08:23:08;;;;;;;0.52;0.52;;;;;;;17.97;28.44;92133.56;4858223;29;20121;-78
2022/11/05 08:25:34;;;;;;;0.28;0.28;;;;;;;17.85;27.16;92119.28;4857341;29;20464;-78
2022/11/05 08:28:06;;;;;;;0.20;0.20;;;;;;;17.32;27.08;92131.09;4879801;29;20042;-80
2022/11/05 08:30:32;;;;;;;3.92;0.50;;;;;;;18.43;30.36;92132.03;4877353;29;20120;-78
2022/11/05 08:33:06;;;;;;;0.70;0.57;;;;;;;18.36;28.80;92123.16;4860471;29;20073;-78
2022/11/05 08:35:34;;;;;;;1.80;0.60;;;;;;;19.24;27.16;92130.81;4845975;29;20390;-79
2022/11/05 08:38:02;;;;;;;0.52;0.30;;;;;;;18.60;27.49;92130.13;4855691;29;20189;-78
2022/11/05 08:40:33;;;;;;;0.38;0.38;;;;;;;18.39;26.59;92131.19;4869985;29;20083;-78
2022/11/05 08:43:01;;;;;;;1.35;0.55;;;;;;;17.27;27.68;92127.56;4845054;29;20065;-78
2022/11/05 08:45:27;;;;;;;0.47;0.47;;;;;;;16.45;30.63;92130.44;4850420;29;20041;-78
2022/11/05 08:48:13;;;;;;;0.45;0.45;;;;;;;15.62;30.35;92146.19;4851575;29;20462;-78
2022/11/05 08:50:39;;;;;;;0.50;0.50;;;;;;;15.28;30.86;92134.09;4841441;29;20052;-78
2022/11/05 08:53:05;;;;;;;0.43;0.43;;;;;;;14.99;30.39;92127.84;4859896;29;20037;-77
2022/11/05 08:55:32;;;;;;;0.65;0.60;;;;;;;14.95;32.20;92134.03;4842784;29;20038;-78
2022/11/05 08:58:00;;;;;;;0.50;0.50;;;;;;;15.11;30.21;92140.31;4873435;29;20048;-78
2022/11/05 09:00:27;;;;;;;0.50;0.50;;;;;;;14.88;32.56;92142.50;4878643;29;20045;-78
2022/11/05 09:02:52;;;;;;;0.50;0.50;;;;;;;15.07;32.92;92134.13;4859463;29;20117;-79
2022/11/05 09:05:18;;;;;;;0.40;0.40;;;;;;;15.11;30.92;92145.56;4851415;29;20057;-78
2022/11/05 09:07:45;;;;;;;0.57;0.43;;;;;;;14.82;30.91;92140.34;4853233;29;20037;-78
2022/11/05 09:10:11;;;;;;;0.55;0.55;;;;;;;14.93;31.17;92144.91;4863297;29;20049;-78
2022/11/05 09:12:36;;;;;;;0.52;0.52;;;;;;;14.54;31.92;92135.50;4849010;29;20407;-77
2022/11/05 09:15:02;;;;;;;0.43;0.43;;;;;;;14.54;33.49;92153.94;4881725;29;20045;-78
2022/11/05 09:17:28;;;;;;;0.52;0.52;;;;;;;14.83;32.84;92160.34;4858655;29;20044;-78
2022/11/05 09:19:53;;;;;;;0.60;0.60;;;;;;;14.27;32.93;92155.94;4871573;29;20061;-77
2022/11/05 09:22:19;;;;;;;0.50;0.50;;;;;;;13.99;33.97;92139.78;4860304;29;20076;-78
2022/11/05 09:24:44;;;;;;;0.57;0.55;;;;;;;14.10;32.62;92159.41;4850666;29;20549;-78
2022/11/05 09:27:13;;;;;;;1.38;0.85;;;;;;;14.33;34.41;92154.66;4851783;29;20166;-78
2022/11/05 09:29:39;;;;;;;0.60;0.60;;;;;;;14.56;32.41;92159.69;4854080;29;20047;-78
2022/11/05 09:32:06;;;;;;;0.60;0.60;;;;;;;14.66;34.84;92156.72;4850786;29;20061;-81
2022/11/05 09:34:32;;;;;;;1.80;0.93;;;;;;;14.67;32.71;92174.06;4848335;29;20065;-80
2022/11/05 09:36:58;;;;;;;5.90;1.98;;;;;;;14.95;34.79;92173.56;4846614;29;20527;-81
2022/11/05 09:39:24;;;;;;;0.80;0.50;;;;;;;14.95;32.87;92173.56;4861695;29;20041;-79
2022/11/05 09:41:52;;;;;;;0.50;0.50;;;;;;;14.75;31.83;92175.88;4850793;29;20036;-79
2022/11/05 09:44:22;;;;;;;1.55;0.52;;;;;;;14.56;32.89;92168.38;4854185;29;20045;-79
2022/11/05 09:46:50;;;;;;;1.63;0.80;;;;;;;14.36;33.14;92175.13;4850399;29;20102;-79
2022/11/05 09:49:50;;;;;;;0.77;0.68;;;;;;;14.90;32.98;92177.16;4857371;29;20491;-80
2022/11/05 09:52:26;;;;;;;0.88;0.60;;;;;;;15.43;33.05;92188.13;4838450;29;20094;-79
2022/11/05 09:54:53;;;;;;;1.27;0.90;;;;;;;14.95;31.31;92176.22;4849798;29;20109;-79
2022/11/05 09:57:43;;;;;;;0.60;0.60;;;;;;;15.02;33.25;92187.03;4866124;29;20045;-79
2022/11/05 10:00:15;;;;;;;1.17;0.85;;;;;;;14.80;32.83;92179.44;4848693;29;20316;-79
2022/11/05 10:02:49;;;;;;;0.50;0.50;;;;;;;15.06;32.20;92189.78;4853251;29;20037;-80
2022/11/05 10:05:17;;;;;;;0.82;0.60;;;;;;;15.35;31.71;92187.09;4848348;29;20132;-80
2022/11/05 10:07:48;;;;;;;2.28;0.52;;;;;;;15.07;33.56;92191.34;4848065;29;20029;-80
2022/11/05 10:10:32;;;;;;;3.17;1.45;;;;;;;15.63;31.77;92191.84;4857161;29;20040;-79
2022/11/05 10:13:03;;;;;;;2.60;1.23;;;;;;;15.29;31.39;92193.66;4847642;29;20049;-78
2022/11/05 10:15:37;;;;;;;0.45;0.45;;;;;;;14.91;32.67;92196.41;4851239;29;20170;-79
2022/11/05 10:18:23;;;;;;;1.00;0.70;;;;;;;15.29;32.54;92187.59;4850886;29;20042;-79
2022/11/05 10:20:49;;;;;;;3.10;1.25;;;;;;;14.99;32.32;92198.19;4869105;29;20072;-79
2022/11/05 10:23:17;;;;;;;0.50;0.50;;;;;;;15.32;31.57;92205.44;4848040;29;20388;-80
2022/11/05 10:25:47;;;;;;;0.68;0.60;;;;;;;15.08;30.46;92198.91;4850241;29;20053;-79
2022/11/05 10:28:25;;;;;;;0.60;0.60;;;;;;;15.68;32.44;92201.44;4850769;29;20105;-79
2022/11/05 10:31:01;;;;;;;1.33;0.77;;;;;;;15.98;30.92;92202.88;4854344;29;20093;-78
2022/11/05 10:33:32;;;;;;;0.40;0.40;;;;;;;15.74;31.14;92200.94;4857478;29;20580;-79
2022/11/05 10:36:03;;;;;;;0.40;0.40;;;;;;;16.37;31.71;92213.97;4862400;29;20045;-79
2022/11/05 10:38:29;;;;;;;1.10;0.80;;;;;;;16.75;30.63;92210.25;4853842;29;20366;-79
2022/11/05 10:41:04;;;;;;;0.50;0.50;;;;;;;16.55;30.06;92209.25;4851177;29;20157;-79
2022/11/05 10:43:47;;;;;;;0.85;0.77;;;;;;;16.22;29.17;92196.13;4854191;29;20085;-79
2022/11/05 10:46:28;;;;;;;0.40;0.40;;;;;;;15.38;31.49;92212.84;4848294;29;20033;-79
2022/11/05 10:49:23;;;;;;;1.65;0.70;;;;;;;15.75;30.80;92220.16;4861375;29;20037;-78
2022/11/05 10:51:56;;;;;;;0.65;0.57;;;;;;;15.56;30.81;92207.44;4831148;29;20049;-79
2022/11/05 10:54:27;;;;;;;1.30;0.80;;;;;;;15.34;31.21;92216.44;4849098;29;20041;-80
2022/11/05 10:56:52;;;;;;;0.50;0.43;;;;;;;15.34;30.73;92217.22;4858028;29;20026;-79
2022/11/05 10:59:27;;;;;;;0.65;0.63;;;;;;;15.49;31.14;92218.50;4859518;29;20044;-79
2022/11/05 11:02:02;;;;;;;0.40;0.40;;;;;;;15.68;30.22;92218.03;4873485;29;20068;-80
2022/11/05 11:04:29;;;;;;;2.75;1.20;;;;;;;15.73;31.30;92217.84;4849573;29;20029;-80
2022/11/05 11:06:58;;;;;;;0.50;0.50;;;;;;;16.13;30.54;92217.31;4857200;29;20033;-80
2022/11/05 11:09:32;;;;;;;0.60;0.60;;;;;;;16.71;30.05;92214.66;4861120;29;20500;-79
2022/11/05 11:12:06;;;;;;;3.08;1.50;;;;;;;16.39;29.77;92227.63;4851505;29;20025;-77
2022/11/05 11:14:33;;;;;;;5.38;2.05;;;;;;;16.28;29.53;92223.88;4855053;29;20068;-78
2022/11/05 11:17:29;;;;;;;0.50;0.50;;;;;;;15.86;29.54;92226.59;4848122;29;20477;-78
2022/11/05 11:20:19;;;;;;;1.52;0.90;;;;;;;16.17;29.75;92210.28;4840148;29;20041;-79
2022/11/05 11:23:03;;;;;;;1.05;0.70;;;;;;;15.91;29.08;92210.53;4842744;29;20041;-77
2022/11/05 11:25:49;;;;;;;1.58;0.75;;;;;;;16.10;31.84;92214.56;4858267;29;20055;-78
2022/11/05 11:28:30;;;;;;;1.50;0.80;;;;;;;16.43;30.17;92212.63;4859149;29;20037;-79
2022/11/05 11:31:11;;;;;;;1.27;0.80;;;;;;;15.91;29.02;92197.34;4866427;29;20072;-78
2022/11/05 11:33:38;;;;;;;2.45;1.05;;;;;;;16.20;29.76;92225.47;4881229;29;20061;-80
2022/11/05 11:36:06;;;;;;;3.50;1.33;;;;;;;16.76;30.43;92216.31;4896450;29;20043;-82
2022/11/05 11:38:35;;;;;;;0.68;0.50;;;;;;;15.93;28.75;92205.72;4859273;29;20049;-80
2022/11/05 11:41:15;;;;;;;0.65;0.63;;;;;;;15.93;31.39;92203.06;4863577;29;20073;-80
2022/11/05 11:43:42;;;;;;;1.35;0.73;;;;;;;16.45;28.02;92210.44;4857081;29;20413;-80
2022/11/05 11:46:18;;;;;;;0.50;0.50;;;;;;;16.10;29.80;92210.06;4847002;29;20138;-79
2022/11/05 11:48:47;;;;;;;0.85;0.43;;;;;;;16.14;28.12;92205.66;4852635;29;20042;-80
2022/11/05 11:51:15;;;;;;;0.50;0.50;;;;;;;16.12;31.75;92212.38;4852149;29;20033;-78
2022/11/05 11:53:41;;;;;;;0.45;0.45;;;;;;;16.75;30.82;92218.19;4854757;29;20319;-79
2022/11/05 11:56:18;;;;;;;0.50;0.47;;;;;;;16.79;27.02;92216.44;4855436;29;20045;-79
2022/11/05 11:58:56;;;;;;;1.42;0.80;;;;;;;16.84;29.31;92218.09;4851135;29;20091;-78
2022/11/05 12:01:27;;;;;;;0.50;0.50;;;;;;;16.85;29.30;92212.47;4848051;29;20050;-78
2022/11/05 12:04:01;;;;;;;1.10;0.77;;;;;;;17.01;28.36;92209.16;4863824;29;20043;-78
2022/11/05 12:06:37;;;;;;;0.52;0.52;;;;;;;16.85;29.69;92217.75;4855887;29;20040;-78
2022/11/05 12:09:20;;;;;;;0.50;0.50;;;;;;;16.25;28.07;92213.94;4863687;29;20029;-78
2022/11/05 12:11:55;;;;;;;0.50;0.50;;;;;;;16.40;30.77;92217.81;4861023;29;20034;-78
2022/11/05 12:14:32;;;;;;;0.40;0.40;;;;;;;16.47;28.78;92209.34;4851056;29;20038;-79
2022/11/05 12:17:08;;;;;;;0.93;0.65;;;;;;;16.13;28.79;92209.41;4853330;29;20049;-78
2022/11/05 12:19:50;;;;;;;0.50;0.35;;;;;;;15.58;28.85;92206.00;4843332;29;20068;-78
2022/11/05 12:22:41;;;;;;;0.50;0.50;;;;;;;15.61;30.36;92215.91;4856810;29;20507;-78
2022/11/05 12:25:33;;;;;;;0.40;0.40;;;;;;;15.65;28.56;92209.97;4860507;29;20510;-78
2022/11/05 12:28:49;;;;;;;0.75;0.55;;;;;;;15.75;30.65;92214.91;4860050;29;20119;-78
2022/11/05 12:31:30;;;;;;;1.10;0.52;;;;;;;15.58;30.06;92206.00;4856184;29;20392;-78
2022/11/05 12:34:20;;;;;;;2.65;1.15;;;;;;;15.70;29.91;92209.78;4871149;29;20414;-79